createdAt,value
2016-08-21T00:00:26.332Z,0
2016-08-21T00:01:26.291Z,0
2016-08-21T00:02:26.976Z,0
2016-08-21T00:03:26.228Z,0
2016-08-21T00:04:26.894Z,0
2016-08-21T00:05:24.771Z,0
2016-08-21T00:06:26.823Z,0
2016-08-21T00:07:26.791Z,0
2016-08-21T00:08:25.363Z,0
2016-08-21T00:09:26.729Z,0
2016-08-21T00:10:26.691Z,0
2016-08-21T00:11:26.666Z,0
2016-08-21T00:12:25.931Z,0
2016-08-21T00:13:25.898Z,0
2016-08-21T00:14:25.862Z,0
2016-08-21T00:15:26.535Z,0
2016-08-21T00:16:25.803Z,0
2016-08-21T00:17:26.461Z,0
2016-08-21T00:18:25.047Z,0
2016-08-21T00:19:25.698Z,0
2016-08-21T00:20:24.976Z,0
2016-08-21T00:21:26.335Z,0
2016-08-21T00:22:24.212Z,0
2016-08-21T00:23:26.270Z,0
2016-08-21T00:24:26.240Z,0
2016-08-21T00:25:26.201Z,0
2016-08-21T00:26:25.481Z,0
2016-08-21T00:27:26.135Z,0
2016-08-21T00:28:26.120Z,0
2016-08-21T00:29:24.673Z,0
2016-08-21T00:30:26.039Z,0
2016-08-21T00:31:25.306Z,0
2016-08-21T00:32:25.277Z,0
2016-08-21T00:33:25.941Z,0
2016-08-21T00:34:25.211Z,0
2016-08-21T00:35:25.177Z,0
2016-08-21T00:36:25.148Z,0
2016-08-21T00:37:25.812Z,0
2016-08-21T00:38:25.769Z,0
2016-08-21T00:39:25.062Z,0
2016-08-21T00:40:25.010Z,0
2016-08-21T00:41:24.980Z,0
2016-08-21T00:42:24.251Z,0
2016-08-21T00:43:24.910Z,0
2016-08-21T00:44:24.880Z,0
2016-08-21T00:45:24.843Z,0
2016-08-21T00:46:24.822Z,4
2016-08-21T00:47:25.475Z,4
2016-08-21T00:48:24.746Z,4
2016-08-21T00:49:24.717Z,4
2016-08-21T00:50:25.379Z,4
2016-08-21T00:51:25.352Z,4
2016-08-21T00:52:25.307Z,4
2016-08-21T00:53:25.275Z,4
2016-08-21T00:54:25.247Z,4
2016-08-21T00:55:25.214Z,4
2016-08-21T00:56:24.483Z,4
2016-08-21T00:57:25.152Z,4
2016-08-21T00:58:25.115Z,4
2016-08-21T00:59:24.394Z,4
2016-08-21T01:00:25.048Z,4
2016-08-21T01:01:24.318Z,4
2016-08-21T01:02:24.980Z,4
2016-08-21T01:03:24.947Z,4
2016-08-21T01:04:24.919Z,4
2016-08-21T01:05:24.184Z,4
2016-08-21T01:06:24.851Z,4
2016-08-21T01:07:24.133Z,4
2016-08-21T01:08:24.785Z,4
2016-08-21T01:09:24.753Z,4
2016-08-21T01:10:23.329Z,4
2016-08-21T01:11:23.290Z,4
2016-08-21T01:12:23.262Z,4
2016-08-21T01:13:24.627Z,4
2016-08-21T01:14:23.896Z,4
2016-08-21T01:15:23.159Z,4
2016-08-21T01:16:24.521Z,0
2016-08-21T01:17:23.115Z,0
2016-08-21T01:18:22.370Z,0
2016-08-21T01:19:23.731Z,0
2016-08-21T01:20:24.402Z,0
2016-08-21T01:21:23.665Z,0
2016-08-21T01:22:22.927Z,0
2016-08-21T01:23:24.293Z,0
2016-08-21T01:24:23.564Z,0
2016-08-21T01:25:24.222Z,0
2016-08-21T01:26:24.190Z,0
2016-08-21T01:27:22.763Z,0
2016-08-21T01:28:24.128Z,0
2016-08-21T01:29:23.394Z,0
2016-08-21T01:30:23.362Z,0
2016-08-21T01:31:24.031Z,0
2016-08-21T01:32:23.998Z,0
2016-08-21T01:33:23.271Z,0
2016-08-21T01:34:23.234Z,0
2016-08-21T01:35:23.903Z,0
2016-08-21T01:36:23.873Z,0
2016-08-21T01:37:23.143Z,0
2016-08-21T01:38:23.797Z,0
2016-08-21T01:39:22.378Z,0
2016-08-21T01:40:23.737Z,0
2016-08-21T01:41:22.305Z,0
2016-08-21T01:42:22.272Z,0
2016-08-21T01:43:22.243Z,0
2016-08-21T01:44:22.208Z,0
2016-08-21T01:45:22.867Z,0
2016-08-21T01:46:22.840Z,0
2016-08-21T01:47:22.111Z,0
2016-08-21T01:48:22.773Z,0
2016-08-21T01:49:23.438Z,0
2016-08-21T01:50:22.706Z,0
2016-08-21T01:51:22.675Z,0
2016-08-21T01:52:21.941Z,0
2016-08-21T01:53:22.610Z,0
2016-08-21T01:54:21.873Z,0
2016-08-21T01:55:22.546Z,0
2016-08-21T01:56:23.199Z,0
2016-08-21T01:57:23.172Z,0
2016-08-21T01:58:23.140Z,0
2016-08-21T01:59:23.106Z,0
2016-08-21T02:00:23.071Z,0
2016-08-21T02:01:23.045Z,0
2016-08-21T02:02:21.619Z,0
2016-08-21T02:03:22.971Z,0
2016-08-21T02:04:22.939Z,0
2016-08-21T02:05:22.910Z,0
2016-08-21T02:06:22.885Z,0
2016-08-21T02:07:22.151Z,0
2016-08-21T02:08:22.111Z,0
2016-08-21T02:09:22.777Z,0
2016-08-21T02:10:22.048Z,0
2016-08-21T02:11:22.711Z,0
2016-08-21T02:12:22.669Z,0
2016-08-21T02:13:22.645Z,0
2016-08-21T02:14:21.210Z,0
2016-08-21T02:15:22.574Z,0
2016-08-21T02:16:22.542Z,0
2016-08-21T02:17:22.514Z,0
2016-08-21T02:18:21.781Z,0
2016-08-21T02:19:21.744Z,0
2016-08-21T02:20:21.714Z,0
2016-08-21T02:21:21.675Z,0
2016-08-21T02:22:21.642Z,0
2016-08-21T02:23:21.619Z,0
2016-08-21T02:24:21.584Z,0
2016-08-21T02:25:20.856Z,0
2016-08-21T02:26:21.512Z,0
2016-08-21T02:27:20.783Z,0
2016-08-21T02:28:21.444Z,0
2016-08-21T02:29:21.411Z,0
2016-08-21T02:30:21.388Z,0
2016-08-21T02:31:21.348Z,0
2016-08-21T02:32:21.316Z,0
2016-08-21T02:33:21.988Z,0
2016-08-21T02:34:21.247Z,0
2016-08-21T02:35:21.908Z,0
2016-08-21T02:36:21.178Z,0
2016-08-21T02:37:21.164Z,0
2016-08-21T02:38:21.835Z,0
2016-08-21T02:39:20.387Z,0
2016-08-21T02:40:21.744Z,0
2016-08-21T02:41:21.713Z,0
2016-08-21T02:42:20.979Z,0
2016-08-21T02:43:20.951Z,0
2016-08-21T02:44:20.917Z,0
2016-08-21T02:45:20.882Z,0
2016-08-21T02:46:21.542Z,0
2016-08-21T02:47:21.510Z,0
2016-08-21T02:48:20.784Z,0
2016-08-21T02:49:20.741Z,0
2016-08-21T02:50:20.015Z,0
2016-08-21T02:51:20.679Z,0
2016-08-21T02:52:19.999Z,0
2016-08-21T02:53:20.616Z,0
2016-08-21T02:54:20.581Z,0
2016-08-21T02:55:20.549Z,0
2016-08-21T02:56:20.515Z,0
2016-08-21T02:57:21.174Z,0
2016-08-21T02:58:20.453Z,0
2016-08-21T02:59:21.109Z,0
2016-08-21T03:00:21.081Z,0
2016-08-21T03:01:21.042Z,0
2016-08-21T03:02:20.311Z,0
2016-08-21T03:03:20.977Z,0
2016-08-21T03:04:20.941Z,0
2016-08-21T03:05:20.215Z,0
2016-08-21T03:06:18.784Z,0
2016-08-21T03:07:20.845Z,0
2016-08-21T03:08:20.802Z,0
2016-08-21T03:09:19.382Z,0
2016-08-21T03:10:20.739Z,0
2016-08-21T03:11:20.010Z,0
2016-08-21T03:12:20.676Z,0
2016-08-21T03:13:19.941Z,0
2016-08-21T03:14:19.908Z,0
2016-08-21T03:15:19.192Z,0
2016-08-21T03:16:20.537Z,0
2016-08-21T03:17:20.517Z,0
2016-08-21T03:18:19.773Z,0
2016-08-21T03:19:19.046Z,0
2016-08-21T03:20:20.408Z,0
2016-08-21T03:21:20.366Z,0
2016-08-21T03:22:20.351Z,0
2016-08-21T03:23:20.301Z,0
2016-08-21T03:24:20.267Z,0
2016-08-21T03:25:19.535Z,0
2016-08-21T03:26:18.107Z,0
2016-08-21T03:27:18.778Z,0
2016-08-21T03:28:19.435Z,0
2016-08-21T03:29:19.399Z,0
2016-08-21T03:30:20.068Z,0
2016-08-21T03:31:19.328Z,0
2016-08-21T03:32:19.299Z,0
2016-08-21T03:33:19.263Z,0
2016-08-21T03:34:19.928Z,0
2016-08-21T03:35:19.903Z,0
2016-08-21T03:36:19.173Z,0
2016-08-21T03:37:19.141Z,0
2016-08-21T03:38:19.094Z,0
2016-08-21T03:39:19.762Z,0
2016-08-21T03:40:19.024Z,0
2016-08-21T03:41:19.691Z,0
2016-08-21T03:42:18.959Z,0
2016-08-21T03:43:18.920Z,0
2016-08-21T03:44:18.891Z,0
2016-08-21T03:45:18.854Z,0
2016-08-21T03:46:18.127Z,0
2016-08-21T03:47:19.490Z,0
2016-08-21T03:48:19.453Z,0
2016-08-21T03:49:18.022Z,0
2016-08-21T03:50:18.687Z,0
2016-08-21T03:51:18.657Z,0
2016-08-21T03:52:19.327Z,0
2016-08-21T03:53:19.275Z,4
2016-08-21T03:54:18.545Z,4
2016-08-21T03:55:19.213Z,4
2016-08-21T03:56:18.472Z,0
2016-08-21T03:57:19.151Z,4
2016-08-21T03:58:18.418Z,4
2016-08-21T03:59:19.075Z,4
2016-08-21T04:00:19.043Z,8
2016-08-21T04:01:18.311Z,8
2016-08-21T04:02:18.976Z,12
2016-08-21T04:03:18.940Z,12
2016-08-21T04:04:18.212Z,16
2016-08-21T04:05:17.481Z,16
2016-08-21T04:06:18.835Z,24
2016-08-21T04:07:18.820Z,24
2016-08-21T04:08:18.068Z,32
2016-08-21T04:09:18.733Z,36
2016-08-21T04:10:17.303Z,40
2016-08-21T04:11:17.267Z,52
2016-08-21T04:12:17.238Z,56
2016-08-21T04:13:17.218Z,68
2016-08-21T04:14:18.562Z,80
2016-08-21T04:15:18.528Z,88
2016-08-21T04:16:17.795Z,100
2016-08-21T04:17:18.452Z,116
2016-08-21T04:18:18.426Z,128
2016-08-21T04:19:17.689Z,144
2016-08-21T04:20:17.658Z,160
2016-08-21T04:21:17.627Z,180
2016-08-21T04:22:17.585Z,200
2016-08-21T04:23:16.889Z,220
2016-08-21T04:24:17.520Z,236
2016-08-21T04:25:16.790Z,252
2016-08-21T04:26:18.149Z,264
2016-08-21T04:27:17.422Z,272
2016-08-21T04:28:18.078Z,276
2016-08-21T04:29:16.652Z,280
2016-08-21T04:30:15.927Z,288
2016-08-21T04:31:17.974Z,292
2016-08-21T04:32:16.555Z,296
2016-08-21T04:33:17.905Z,300
2016-08-21T04:34:16.481Z,296
2016-08-21T04:35:17.143Z,284
2016-08-21T04:36:17.806Z,284
2016-08-21T04:37:17.778Z,284
2016-08-21T04:38:17.739Z,292
2016-08-21T04:39:16.309Z,312
2016-08-21T04:40:17.668Z,344
2016-08-21T04:41:16.944Z,376
2016-08-21T04:42:17.607Z,428
2016-08-21T04:43:16.870Z,480
2016-08-21T04:44:17.533Z,500
2016-08-21T04:45:17.500Z,496
2016-08-21T04:46:17.469Z,460
2016-08-21T04:47:16.746Z,424
2016-08-21T04:48:16.000Z,408
2016-08-21T04:49:17.361Z,396
2016-08-21T04:50:17.331Z,388
2016-08-21T04:51:17.298Z,376
2016-08-21T04:52:17.258Z,384
2016-08-21T04:53:15.139Z,424
2016-08-21T04:54:17.200Z,472
2016-08-21T04:55:17.160Z,512
2016-08-21T04:56:15.749Z,528
2016-08-21T04:57:16.388Z,540
2016-08-21T04:58:17.068Z,512
2016-08-21T04:59:17.023Z,500
2016-08-21T05:00:16.299Z,512
2016-08-21T05:01:16.266Z,524
2016-08-21T05:02:16.925Z,552
2016-08-21T05:03:16.191Z,556
2016-08-21T05:04:16.150Z,568
2016-08-21T05:05:16.815Z,624
2016-08-21T05:06:16.097Z,736
2016-08-21T05:07:16.746Z,864
2016-08-21T05:08:16.726Z,956
2016-08-21T05:09:16.685Z,1028
2016-08-21T05:10:16.651Z,1060
2016-08-21T05:11:15.922Z,1052
2016-08-21T05:12:15.890Z,1140
2016-08-21T05:13:16.547Z,1244
2016-08-21T05:14:16.515Z,1284
2016-08-21T05:15:16.494Z,1348
2016-08-21T05:16:15.752Z,1608
2016-08-21T05:17:15.722Z,1836
2016-08-21T05:18:16.381Z,1852
2016-08-21T05:19:15.652Z,1784
2016-08-21T05:20:15.614Z,1644
2016-08-21T05:21:15.583Z,1448
2016-08-21T05:22:16.244Z,1292
2016-08-21T05:23:16.216Z,1248
2016-08-21T05:24:14.781Z,1392
2016-08-21T05:25:15.452Z,1528
2016-08-21T05:26:15.416Z,1532
2016-08-21T05:27:15.389Z,1484
2016-08-21T05:28:16.046Z,1512
2016-08-21T05:29:16.013Z,1428
2016-08-21T05:30:15.293Z,1276
2016-08-21T05:31:15.249Z,1192
2016-08-21T05:32:15.233Z,1168
2016-08-21T05:33:15.874Z,1128
2016-08-21T05:34:14.453Z,1048
2016-08-21T05:35:15.813Z,956
2016-08-21T05:36:15.780Z,896
2016-08-21T05:37:15.047Z,880
2016-08-21T05:38:15.714Z,852
2016-08-21T05:39:14.989Z,812
2016-08-21T05:40:14.247Z,780
2016-08-21T05:41:14.917Z,720
2016-08-21T05:42:15.575Z,668
2016-08-21T05:43:15.548Z,660
2016-08-21T05:44:14.119Z,736
2016-08-21T05:45:14.784Z,908
2016-08-21T05:46:14.054Z,1180
2016-08-21T05:47:14.714Z,1392
2016-08-21T05:48:15.378Z,1476
2016-08-21T05:49:15.349Z,1428
2016-08-21T05:50:14.610Z,1496
2016-08-21T05:51:13.887Z,1620
2016-08-21T05:52:15.245Z,1640
2016-08-21T05:53:14.530Z,1632
2016-08-21T05:54:13.784Z,1616
2016-08-21T05:55:15.146Z,1588
2016-08-21T05:56:14.419Z,1644
2016-08-21T05:57:14.385Z,1568
2016-08-21T05:58:15.046Z,1456
2016-08-21T05:59:15.011Z,1520
2016-08-21T06:00:14.286Z,1612
2016-08-21T06:01:13.551Z,1644
2016-08-21T06:02:14.918Z,1604
2016-08-21T06:03:14.892Z,1652
2016-08-21T06:04:14.845Z,1740
2016-08-21T06:05:14.121Z,2056
2016-08-21T06:06:14.088Z,2604
2016-08-21T06:07:14.063Z,3200
2016-08-21T06:08:14.019Z,3376
2016-08-21T06:09:14.681Z,3152
2016-08-21T06:10:13.949Z,2888
2016-08-21T06:11:13.919Z,2756
2016-08-21T06:12:13.189Z,2612
2016-08-21T06:13:13.158Z,2504
2016-08-21T06:14:13.817Z,2532
2016-08-21T06:15:13.788Z,2800
2016-08-21T06:16:14.455Z,3216
2016-08-21T06:17:13.730Z,3816
2016-08-21T06:18:12.991Z,4656
2016-08-21T06:19:12.956Z,5316
2016-08-21T06:20:13.646Z,5904
2016-08-21T06:21:13.594Z,6232
2016-08-21T06:22:14.251Z,6588
2016-08-21T06:23:13.530Z,6888
2016-08-21T06:24:12.805Z,6664
2016-08-21T06:25:12.769Z,6020
2016-08-21T06:26:14.122Z,5164
2016-08-21T06:27:13.391Z,4624
2016-08-21T06:28:11.968Z,4528
2016-08-21T06:29:14.026Z,4388
2016-08-21T06:30:13.299Z,3960
2016-08-21T06:31:13.973Z,3304
2016-08-21T06:32:13.231Z,2732
2016-08-21T06:33:13.205Z,2360
2016-08-21T06:34:12.470Z,2236
2016-08-21T06:35:13.834Z,2380
2016-08-21T06:36:13.103Z,2460
2016-08-21T06:37:13.070Z,2748
2016-08-21T06:38:13.736Z,3032
2016-08-21T06:39:13.005Z,3536
2016-08-21T06:40:12.276Z,4124
2016-08-21T06:41:13.639Z,4788
2016-08-21T06:42:12.920Z,5448
2016-08-21T06:43:13.575Z,6000
2016-08-21T06:44:12.850Z,6576
2016-08-21T06:45:13.509Z,7860
2016-08-21T06:46:13.472Z,8444
2016-08-21T06:47:13.438Z,8600
2016-08-21T06:48:12.713Z,8980
2016-08-21T06:49:11.289Z,8896
2016-08-21T06:50:13.345Z,8292
2016-08-21T06:51:13.322Z,7344
2016-08-21T06:52:12.595Z,6644
2016-08-21T06:53:12.555Z,6004
2016-08-21T06:54:13.210Z,5252
2016-08-21T06:55:13.187Z,4716
2016-08-21T06:56:12.452Z,4416
2016-08-21T06:57:13.121Z,4000
2016-08-21T06:58:13.101Z,3576
2016-08-21T06:59:12.360Z,3432
2016-08-21T07:00:13.034Z,3888
2016-08-21T07:01:12.300Z,4460
2016-08-21T07:02:12.262Z,4696
2016-08-21T07:03:12.932Z,4628
2016-08-21T07:04:12.922Z,4564
2016-08-21T07:05:12.174Z,4664
2016-08-21T07:06:12.143Z,4768
2016-08-21T07:07:12.815Z,4620
2016-08-21T07:08:12.082Z,4140
2016-08-21T07:09:12.747Z,3772
2016-08-21T07:10:12.012Z,3500
2016-08-21T07:11:12.683Z,3200
2016-08-21T07:12:11.959Z,3048
2016-08-21T07:13:11.922Z,2988
2016-08-21T07:14:12.591Z,2804
2016-08-21T07:15:12.551Z,2788
2016-08-21T07:16:11.830Z,2920
2016-08-21T07:17:12.491Z,3020
2016-08-21T07:18:11.771Z,3176
2016-08-21T07:19:11.057Z,3104
2016-08-21T07:20:12.396Z,3052
2016-08-21T07:21:12.362Z,3080
2016-08-21T07:22:11.635Z,3156
2016-08-21T07:23:11.599Z,3296
2016-08-21T07:24:11.573Z,3292
2016-08-21T07:25:12.238Z,3240
2016-08-21T07:26:12.201Z,3556
2016-08-21T07:27:12.170Z,3884
2016-08-21T07:28:11.442Z,4144
2016-08-21T07:29:11.412Z,4192
2016-08-21T07:30:10.681Z,4272
2016-08-21T07:31:12.044Z,4836
2016-08-21T07:32:11.330Z,5684
2016-08-21T07:33:11.996Z,7136
2016-08-21T07:34:11.957Z,8320
2016-08-21T07:35:11.921Z,8548
2016-08-21T07:36:10.514Z,8944
2016-08-21T07:37:11.855Z,7640
2016-08-21T07:38:11.128Z,8052
2016-08-21T07:39:10.401Z,8272
2016-08-21T07:40:11.067Z,7972
2016-08-21T07:41:11.058Z,7716
2016-08-21T07:42:10.303Z,7232
2016-08-21T07:43:10.281Z,7420
2016-08-21T07:44:11.875Z,7764
2016-08-21T07:45:11.611Z,7228
2016-08-21T07:46:10.877Z,7360
2016-08-21T07:47:11.542Z,7732
2016-08-21T07:48:10.816Z,7804
2016-08-21T07:49:10.089Z,9096
2016-08-21T07:50:10.057Z,7176
2016-08-21T07:51:11.419Z,7344
2016-08-21T07:52:11.405Z,8236
2016-08-21T07:53:11.356Z,8612
2016-08-21T07:54:11.327Z,8460
2016-08-21T07:55:10.606Z,8200
2016-08-21T07:56:11.265Z,7748
2016-08-21T07:57:10.540Z,7268
2016-08-21T07:58:09.809Z,7220
2016-08-21T07:59:11.175Z,7184
2016-08-21T08:00:09.753Z,7692
2016-08-21T08:01:11.115Z,7732
2016-08-21T08:02:10.383Z,7432
2016-08-21T08:03:09.663Z,7596
2016-08-21T08:04:11.023Z,7520
2016-08-21T08:05:10.308Z,7668
2016-08-21T08:06:10.955Z,7508
2016-08-21T08:07:10.228Z,7288
2016-08-21T08:08:10.901Z,7636
2016-08-21T08:09:10.164Z,8384
2016-08-21T08:10:10.150Z,9388
2016-08-21T08:11:10.112Z,9676
2016-08-21T08:12:10.778Z,9948
2016-08-21T08:13:10.045Z,10412
2016-08-21T08:14:10.713Z,11384
2016-08-21T08:15:10.687Z,13568
2016-08-21T08:16:09.964Z,14376
2016-08-21T08:17:09.228Z,13040
2016-08-21T08:18:09.904Z,12792
2016-08-21T08:19:09.874Z,12332
2016-08-21T08:20:10.537Z,11556
2016-08-21T08:21:09.109Z,10772
2016-08-21T08:22:10.476Z,11564
2016-08-21T08:23:09.745Z,10720
2016-08-21T08:24:10.410Z,9228
2016-08-21T08:25:09.688Z,8696
2016-08-21T08:26:10.348Z,8500
2016-08-21T08:27:09.916Z,9312
2016-08-21T08:28:10.295Z,9932
2016-08-21T08:29:10.262Z,8092
2016-08-21T08:30:10.232Z,7388
2016-08-21T08:31:10.207Z,8248
2016-08-21T08:32:10.168Z,8444
2016-08-21T08:33:09.469Z,9324
2016-08-21T08:34:09.438Z,8544
2016-08-21T08:35:08.691Z,8888
2016-08-21T08:36:09.361Z,9776
2016-08-21T08:37:08.638Z,9056
2016-08-21T08:38:09.997Z,8588
2016-08-21T08:39:09.969Z,11168
2016-08-21T08:40:09.946Z,12448
2016-08-21T08:41:08.509Z,14840
2016-08-21T08:42:08.497Z,19040
2016-08-21T08:43:09.851Z,18816
2016-08-21T08:44:09.121Z,20480
2016-08-21T08:45:09.794Z,21376
2016-08-21T08:46:09.067Z,13440
2016-08-21T08:47:09.039Z,16104
2016-08-21T08:48:09.938Z,19360
2016-08-21T08:49:08.978Z,30208
2016-08-21T08:50:08.250Z,37280
2016-08-21T08:51:08.937Z,33568
2016-08-21T08:52:08.891Z,35680
2016-08-21T08:53:08.871Z,27648
2016-08-21T08:54:09.538Z,23552
2016-08-21T08:55:09.504Z,23360
2016-08-21T08:56:08.778Z,19456
2016-08-21T08:57:08.755Z,17280
2016-08-21T08:58:08.023Z,15600
2016-08-21T08:59:09.385Z,14392
2016-08-21T09:00:08.674Z,14388
2016-08-21T09:01:08.637Z,13076
2016-08-21T09:02:09.314Z,13640
2016-08-21T09:03:08.582Z,15028
2016-08-21T09:04:08.563Z,19200
2016-08-21T09:05:09.242Z,27616
2016-08-21T09:06:09.189Z,19712
2016-08-21T09:07:08.474Z,21568
2016-08-21T09:08:08.460Z,26240
2016-08-21T09:09:07.022Z,32736
2016-08-21T09:10:09.087Z,31936
2016-08-21T09:11:09.055Z,38400
2016-08-21T09:12:08.333Z,40928
2016-08-21T09:13:08.303Z,79840
2016-08-21T09:14:08.971Z,46496
2016-08-21T09:15:08.957Z,77856
2016-08-21T09:16:08.921Z,45408
2016-08-21T09:17:08.193Z,46432
2016-08-21T09:18:08.172Z,42112
2016-08-21T09:19:08.843Z,45728
2016-08-21T09:20:06.729Z,39744
2016-08-21T09:21:07.398Z,32416
2016-08-21T09:22:08.765Z,32992
2016-08-21T09:23:07.344Z,33056
2016-08-21T09:24:07.327Z,55008
2016-08-21T09:25:07.995Z,30912
2016-08-21T09:26:08.676Z,33728
2016-08-21T09:27:08.647Z,36064
2016-08-21T09:28:07.923Z,51136
2016-08-21T09:29:07.897Z,19872
2016-08-21T09:30:07.878Z,17280
2016-08-21T09:31:07.847Z,15908
2016-08-21T09:32:08.526Z,15688
2016-08-21T09:33:08.594Z,15636
2016-08-21T09:34:07.783Z,15668
2016-08-21T09:35:07.759Z,17088
2016-08-21T09:36:08.430Z,18048
2016-08-21T09:37:07.710Z,18624
2016-08-21T09:38:07.673Z,22080
2016-08-21T09:39:07.655Z,31520
2016-08-21T09:40:07.632Z,25120
2016-08-21T09:41:08.309Z,21184
2016-08-21T09:42:08.279Z,50400
2016-08-21T09:43:08.262Z,18848
2016-08-21T09:44:08.245Z,17312
2016-08-21T09:45:08.208Z,15860
2016-08-21T09:46:06.805Z,17184
2016-08-21T09:47:07.450Z,18272
2016-08-21T09:48:07.442Z,17120
2016-08-21T09:49:07.406Z,15064
2016-08-21T09:50:08.074Z,15164
2016-08-21T09:51:06.660Z,18880
2016-08-21T09:52:07.328Z,21216
2016-08-21T09:53:07.308Z,24864
2016-08-21T09:54:07.276Z,26720
2016-08-21T09:55:07.959Z,27616
2016-08-21T09:56:07.229Z,23136
2016-08-21T09:57:07.207Z,19872
2016-08-21T09:58:07.872Z,23200
2016-08-21T09:59:07.148Z,18048
2016-08-21T10:00:07.117Z,14064
2016-08-21T10:01:07.795Z,12080
2016-08-21T10:02:07.070Z,14164
2016-08-21T10:03:07.047Z,15220
2016-08-21T10:04:07.018Z,17792
2016-08-21T10:05:06.997Z,16928
2016-08-21T10:06:07.669Z,18784
2016-08-21T10:07:06.949Z,18208
2016-08-21T10:08:07.611Z,14992
2016-08-21T10:09:07.580Z,14404
2016-08-21T10:10:07.560Z,22976
2016-08-21T10:11:06.133Z,34336
2016-08-21T10:12:06.803Z,32288
2016-08-21T10:13:07.485Z,24320
2016-08-21T10:14:06.757Z,18272
2016-08-21T10:15:06.744Z,133856
2016-08-21T10:16:06.700Z,37024
2016-08-21T10:17:07.375Z,75968
2016-08-21T10:18:07.347Z,39072
2016-08-21T10:19:05.930Z,62208
2016-08-21T10:20:06.616Z,23104
2016-08-21T10:21:07.272Z,24768
2016-08-21T10:22:06.670Z,27840
2016-08-21T10:23:06.526Z,18752
2016-08-21T10:24:07.202Z,16548
2016-08-21T10:25:06.480Z,19232
2016-08-21T10:26:06.455Z,20960
2016-08-21T10:27:07.132Z,19968
2016-08-21T10:28:06.404Z,84992
2016-08-21T10:29:06.383Z,80704
2016-08-21T10:30:06.357Z,41408
2016-08-21T10:31:06.324Z,39552
2016-08-21T10:32:06.307Z,36448
2016-08-21T10:33:06.287Z,59136
2016-08-21T10:34:05.560Z,31840
2016-08-21T10:35:06.234Z,29856
2016-08-21T10:36:06.904Z,28928
2016-08-21T10:37:06.878Z,29504
2016-08-21T10:38:06.851Z,29344
2016-08-21T10:39:06.132Z,27936
2016-08-21T10:40:05.424Z,27456
2016-08-21T10:41:06.781Z,28064
2016-08-21T10:42:06.754Z,31104
2016-08-21T10:43:06.042Z,27392
2016-08-21T10:44:06.013Z,27200
2016-08-21T10:45:05.295Z,21920
2016-08-21T10:46:04.575Z,25024
2016-08-21T10:47:06.635Z,28768
2016-08-21T10:48:05.916Z,49440
2016-08-21T10:49:04.519Z,31136
2016-08-21T10:50:06.565Z,41248
2016-08-21T10:51:06.538Z,20992
2016-08-21T10:52:05.834Z,26560
2016-08-21T10:53:05.102Z,26784
2016-08-21T10:54:05.086Z,48000
2016-08-21T10:55:05.757Z,50592
2016-08-21T10:56:05.733Z,49728
2016-08-21T10:57:06.420Z,50272
2016-08-21T10:58:05.683Z,49760
2016-08-21T10:59:05.677Z,44608
2016-08-21T11:00:05.640Z,43456
2016-08-21T11:01:06.332Z,74688
2016-08-21T11:02:06.297Z,98656
2016-08-21T11:03:05.578Z,91296
2016-08-21T11:04:04.864Z,95328
2016-08-21T11:05:06.233Z,93440
2016-08-21T11:06:06.220Z,90304
2016-08-21T11:07:04.797Z,86848
2016-08-21T11:08:04.805Z,88512
2016-08-21T11:09:06.160Z,91072
2016-08-21T11:10:04.751Z,90688
2016-08-21T11:11:06.124Z,92672
2016-08-21T11:12:04.004Z,86624
2016-08-21T11:13:06.078Z,80736
2016-08-21T11:14:06.054Z,84608
2016-08-21T11:15:06.043Z,84832
2016-08-21T11:16:05.319Z,86784
2016-08-21T11:17:05.301Z,59264
2016-08-21T11:18:05.290Z,21760
2016-08-21T11:19:05.974Z,16992
2016-08-21T11:20:05.940Z,16172
2016-08-21T11:21:05.924Z,15600
2016-08-21T11:22:05.898Z,15088
2016-08-21T11:23:05.882Z,15112
2016-08-21T11:24:04.465Z,14800
2016-08-21T11:25:05.828Z,14440
2016-08-21T11:26:05.115Z,14184
2016-08-21T11:27:05.795Z,13904
2016-08-21T11:28:05.075Z,13596
2016-08-21T11:29:05.761Z,14104
2016-08-21T11:30:05.033Z,13472
2016-08-21T11:31:05.710Z,13148
2016-08-21T11:32:05.686Z,12912
2016-08-21T11:33:05.672Z,13028
2016-08-21T11:34:05.657Z,13212
2016-08-21T11:35:04.941Z,12264
2016-08-21T11:36:05.593Z,11660
2016-08-21T11:37:05.578Z,10532
2016-08-21T11:38:04.848Z,8808
2016-08-21T11:39:04.834Z,9924
2016-08-21T11:40:04.820Z,8592
2016-08-21T11:41:05.490Z,11240
2016-08-21T11:42:05.477Z,14100
2016-08-21T11:43:05.437Z,14476
2016-08-21T11:44:05.408Z,15048
2016-08-21T11:45:03.994Z,13752
2016-08-21T11:46:03.965Z,14224
2016-08-21T11:47:05.338Z,15972
2016-08-21T11:48:05.311Z,16500
2016-08-21T11:49:03.894Z,17824
2016-08-21T11:50:04.557Z,17312
2016-08-21T11:51:04.565Z,15324
2016-08-21T11:52:05.206Z,13592
2016-08-21T11:53:04.489Z,12208
2016-08-21T11:54:03.765Z,11192
2016-08-21T11:55:03.748Z,10312
2016-08-21T11:56:04.419Z,9904
2016-08-21T11:57:05.083Z,9716
2016-08-21T11:58:03.659Z,10056
2016-08-21T11:59:05.030Z,10000
2016-08-21T12:00:04.311Z,9400
2016-08-21T12:01:04.978Z,8556
2016-08-21T12:02:04.272Z,8296
2016-08-21T12:03:04.929Z,8176
2016-08-21T12:04:04.206Z,8792
2016-08-21T12:05:04.175Z,9444
2016-08-21T12:06:04.858Z,11352
2016-08-21T12:07:03.430Z,12900
2016-08-21T12:08:04.103Z,14084
2016-08-21T12:09:04.074Z,15996
2016-08-21T12:10:04.751Z,17024
2016-08-21T12:11:04.026Z,16124
2016-08-21T12:12:04.698Z,15704
2016-08-21T12:13:03.982Z,16912
2016-08-21T12:14:03.250Z,16748
2016-08-21T12:15:03.914Z,17184
2016-08-21T12:16:04.591Z,17888
2016-08-21T12:17:03.863Z,19360
2016-08-21T12:18:04.537Z,21120
2016-08-21T12:19:04.508Z,20768
2016-08-21T12:20:03.786Z,19424
2016-08-21T12:21:03.757Z,19776
2016-08-21T12:22:03.742Z,18944
2016-08-21T12:23:04.407Z,17312
2016-08-21T12:24:02.983Z,16120
2016-08-21T12:25:02.958Z,14736
2016-08-21T12:26:04.328Z,13624
2016-08-21T12:27:04.310Z,15404
2016-08-21T12:28:04.272Z,15380
2016-08-21T12:29:02.868Z,15216
2016-08-21T12:30:02.832Z,15728
2016-08-21T12:31:02.801Z,14868
2016-08-21T12:32:04.174Z,13920
2016-08-21T12:33:03.447Z,12088
2016-08-21T12:34:04.119Z,11484
2016-08-21T12:35:03.389Z,11724
2016-08-21T12:36:03.365Z,13168
2016-08-21T12:37:04.051Z,14028
2016-08-21T12:38:04.012Z,13756
2016-08-21T12:39:03.295Z,13140
2016-08-21T12:40:02.567Z,14616
2016-08-21T12:41:03.236Z,15176
2016-08-21T12:42:03.913Z,14516
2016-08-21T12:43:03.246Z,15120
2016-08-21T12:44:03.870Z,15552
2016-08-21T12:45:03.135Z,15732
2016-08-21T12:46:03.104Z,16252
2016-08-21T12:47:02.388Z,17088
2016-08-21T12:48:03.749Z,16068
2016-08-21T12:49:03.032Z,17120
2016-08-21T12:50:03.702Z,16200
2016-08-21T12:51:02.282Z,15128
2016-08-21T12:52:02.959Z,14200
2016-08-21T12:53:02.243Z,13768
2016-08-21T12:54:02.223Z,14284
2016-08-21T12:55:02.871Z,13740
2016-08-21T12:56:03.543Z,14544
2016-08-21T12:57:02.122Z,14248
2016-08-21T12:58:02.094Z,13348
2016-08-21T12:59:03.473Z,12604
2016-08-21T13:00:02.053Z,12856
2016-08-21T13:01:03.423Z,14028
2016-08-21T13:02:03.386Z,15140
2016-08-21T13:03:03.358Z,14040
2016-08-21T13:04:01.937Z,13452
2016-08-21T13:05:02.614Z,13556
2016-08-21T13:06:02.582Z,13252
2016-08-21T13:07:03.271Z,12148
2016-08-21T13:08:03.249Z,10068
2016-08-21T13:09:02.512Z,7880
2016-08-21T13:10:01.782Z,7156
2016-08-21T13:11:03.149Z,6908
2016-08-21T13:12:03.127Z,6836
2016-08-21T13:13:02.396Z,6800
2016-08-21T13:14:03.080Z,6856
2016-08-21T13:15:01.649Z,6872
2016-08-21T13:16:02.319Z,5856
2016-08-21T13:17:01.592Z,5512
2016-08-21T13:18:02.264Z,5480
2016-08-21T13:19:02.931Z,5528
2016-08-21T13:20:02.222Z,5708
2016-08-21T13:21:02.879Z,5992
2016-08-21T13:22:02.152Z,5768
2016-08-21T13:23:02.145Z,5612
2016-08-21T13:24:02.124Z,6504
2016-08-21T13:25:01.384Z,7528
2016-08-21T13:26:00.666Z,7856
2016-08-21T13:27:02.719Z,7448
2016-08-21T13:28:01.300Z,6940
2016-08-21T13:29:02.669Z,6580
2016-08-21T13:30:02.643Z,6516
2016-08-21T13:31:02.607Z,6612
2016-08-21T13:32:01.891Z,5996
2016-08-21T13:33:02.551Z,5896
2016-08-21T13:34:02.528Z,5856
2016-08-21T13:35:01.801Z,5340
2016-08-21T13:36:01.777Z,5084